Time;durP1;ratioP1;P1;durP2;ratioP2;P2;SDS_P1;SDS_P2;PMS_P1;PMS_P2;Temp;Humidity;BMP_temperature;BMP_pressure;BME280_temperature;BME280_humidity;BME280_pressure;Samples;Min_cycle;Max_cycle;Signal;HPM_P1;HPM_P2
2022/03/03 00:02:06;;;;;;;25.77;14.37;;;;;;;;;;5028019;28;20433;-62
2022/03/03 00:04:33;;;;;;;28.30;15.83;;;;;;;;;;5028157;28;20826;-62
2022/03/03 00:06:59;;;;;;;29.20;15.87;;;;;;;;;;5031241;28;21219;-62
2022/03/03 00:09:26;;;;;;;25.13;14.27;;;;;;;;;;5046484;28;20519;-62
2022/03/03 00:11:52;;;;;;;24.77;13.20;;;;;;;;;;5047997;28;20437;-62
2022/03/03 00:14:19;;;;;;;22.70;12.80;;;;;;;;;;5048054;28;21326;-62
2022/03/03 00:16:46;;;;;;;22.67;11.43;;;;;;;;;;5047705;28;20426;-63
2022/03/03 00:19:12;;;;;;;23.67;11.60;;;;;;;;;;5042220;28;20457;-63
2022/03/03 00:21:39;;;;;;;23.77;13.10;;;;;;;;;;5030426;28;21214;-63
2022/03/03 00:24:06;;;;;;;26.47;13.97;;;;;;;;;;5031542;28;20436;-62
2022/03/03 00:26:32;;;;;;;24.93;13.60;;;;;;;;;;5031857;28;20415;-62
2022/03/03 00:28:59;;;;;;;29.13;13.63;;;;;;;;;;5031814;28;21167;-62
2022/03/03 00:31:25;;;;;;;23.37;11.93;;;;;;;;;;5031254;28;20430;-62
2022/03/03 00:33:52;;;;;;;19.23;11.00;;;;;;;;;;5031347;28;20434;-62
2022/03/03 00:36:19;;;;;;;22.90;11.83;;;;;;;;;;5031550;28;21456;-62
2022/03/03 00:38:47;;;;;;;25.93;12.17;;;;;;;;;;5030935;28;20454;-63
2022/03/03 00:41:13;;;;;;;19.70;11.50;;;;;;;;;;5031821;28;20430;-62
2022/03/03 00:43:40;;;;;;;21.37;12.83;;;;;;;;;;5031176;28;20445;-63
2022/03/03 00:46:07;;;;;;;25.13;13.57;;;;;;;;;;5031134;28;20458;-62
2022/03/03 00:48:33;;;;;;;24.67;12.33;;;;;;;;;;5030964;28;20477;-63
2022/03/03 00:51:00;;;;;;;27.17;14.60;;;;;;;;;;5030084;28;20959;-62
2022/03/03 00:53:26;;;;;;;22.47;12.57;;;;;;;;;;5031514;28;20832;-62
2022/03/03 00:55:53;;;;;;;26.80;12.63;;;;;;;;;;5034752;28;20972;-62
2022/03/03 00:58:19;;;;;;;23.10;12.43;;;;;;;;;;5050788;28;20940;-62
2022/03/03 01:00:46;;;;;;;23.40;12.63;;;;;;;;;;5050666;28;20452;-62
2022/03/03 01:03:13;;;;;;;24.57;12.83;;;;;;;;;;5050820;28;20499;-63
2022/03/03 01:41:28;;;;;;;24.70;11.57;;;;;;;;;;5047110;28;23431;-63
2022/03/03 01:43:55;;;;;;;23.73;11.90;;;;;;;;;;5030385;28;20430;-62
2022/03/03 01:46:22;;;;;;;25.70;12.67;;;;;;;;;;5029697;28;20456;-62
2022/03/03 01:48:48;;;;;;;24.87;11.60;;;;;;;;;;5029918;28;20568;-62
2022/03/03 01:51:15;;;;;;;24.00;12.37;;;;;;;;;;5028430;28;20952;-62
2022/03/03 01:53:42;;;;;;;21.80;11.33;;;;;;;;;;5032280;28;20452;-62
2022/03/03 01:56:08;;;;;;;20.17;10.93;;;;;;;;;;5032561;28;20442;-62
2022/03/03 01:58:36;;;;;;;19.30;10.57;;;;;;;;;;5030774;28;20484;-62
2022/03/03 02:01:03;;;;;;;19.47;10.63;;;;;;;;;;5029567;28;21106;-62
2022/03/03 02:03:29;;;;;;;20.80;9.70;;;;;;;;;;5029822;28;20431;-62
2022/03/03 02:05:56;;;;;;;20.37;10.20;;;;;;;;;;5029607;28;20996;-62
2022/03/03 02:08:23;;;;;;;16.70;9.37;;;;;;;;;;5044393;28;20957;-63
2022/03/03 02:10:53;;;;;;;19.70;10.20;;;;;;;;;;5048302;28;20488;-62
2022/03/03 02:13:19;;;;;;;22.40;10.53;;;;;;;;;;5048181;28;20429;-62
2022/03/03 02:15:46;;;;;;;20.07;9.60;;;;;;;;;;5035745;28;20441;-63
2022/03/03 02:18:13;;;;;;;19.03;10.07;;;;;;;;;;5029565;28;20466;-63
2022/03/03 02:20:40;;;;;;;21.17;10.13;;;;;;;;;;5029102;28;20454;-63
2022/03/03 02:23:06;;;;;;;19.50;9.33;;;;;;;;;;5029668;28;20423;-62
2022/03/03 02:25:33;;;;;;;21.07;10.10;;;;;;;;;;5029305;28;20480;-62
2022/03/03 02:27:59;;;;;;;19.47;10.07;;;;;;;;;;5029313;28;20458;-62
2022/03/03 02:30:26;;;;;;;16.83;8.83;;;;;;;;;;5028867;28;20502;-63
2022/03/03 02:32:52;;;;;;;21.07;9.80;;;;;;;;;;5029422;28;20426;-63
2022/03/03 02:35:19;;;;;;;19.27;9.07;;;;;;;;;;5029167;28;20443;-63
2022/03/03 02:37:46;;;;;;;18.80;9.00;;;;;;;;;;5028975;28;20462;-62
2022/03/03 02:40:14;;;;;;;17.20;9.27;;;;;;;;;;5029151;28;20493;-62
2022/03/03 02:42:41;;;;;;;21.33;9.27;;;;;;;;;;5026911;28;21312;-62
2022/03/03 02:45:08;;;;;;;21.93;9.90;;;;;;;;;;5028866;28;20768;-62
2022/03/03 02:47:39;;;;;;;19.87;9.23;;;;;;;;;;5029072;28;21073;-62
2022/03/03 02:50:06;;;;;;;16.90;8.83;;;;;;;;;;5029060;28;20478;-62
2022/03/03 02:52:33;;;;;;;20.30;9.30;;;;;;;;;;5027654;28;20422;-62
2022/03/03 02:54:59;;;;;;;20.93;9.20;;;;;;;;;;5028826;28;20470;-62
2022/03/03 03:00:12;;;;;;;16.70;8.43;;;;;;;;;;5028434;28;20457;-62
2022/03/03 03:02:39;;;;;;;17.80;8.53;;;;;;;;;;5028808;28;20434;-62
2022/03/03 03:05:06;;;;;;;17.27;8.97;;;;;;;;;;5028690;28;20493;-62
2022/03/03 03:07:33;;;;;;;15.43;8.27;;;;;;;;;;5036771;28;20437;-62
2022/03/03 03:10:00;;;;;;;17.07;9.13;;;;;;;;;;5048821;28;20477;-62
2022/03/03 03:12:26;;;;;;;15.57;8.23;;;;;;;;;;5047121;28;20429;-63
2022/03/03 03:14:53;;;;;;;16.67;8.17;;;;;;;;;;5043248;28;20537;-62
2022/03/03 03:17:20;;;;;;;18.67;9.20;;;;;;;;;;5028825;28;20422;-63
2022/03/03 03:19:46;;;;;;;16.97;8.40;;;;;;;;;;5028552;28;20433;-65
2022/03/03 03:22:13;;;;;;;20.50;8.77;;;;;;;;;;5028429;28;20427;-66
2022/03/03 03:24:40;;;;;;;20.67;10.17;;;;;;;;;;5028397;28;20442;-65
2022/03/03 03:27:06;;;;;;;19.70;9.10;;;;;;;;;;5028498;28;20430;-65
2022/03/03 03:29:33;;;;;;;20.43;9.23;;;;;;;;;;5028495;28;20532;-65
2022/03/03 03:31:59;;;;;;;19.50;8.97;;;;;;;;;;5028757;28;21357;-65
2022/03/03 03:34:26;;;;;;;22.47;9.77;;;;;;;;;;5028134;28;20443;-65
2022/03/03 03:36:55;;;;;;;21.93;9.53;;;;;;;;;;5032318;28;20472;-65
2022/03/03 03:39:21;;;;;;;23.63;10.43;;;;;;;;;;5048002;28;20440;-65
2022/03/03 03:41:48;;;;;;;21.67;10.37;;;;;;;;;;5048267;28;20996;-65
2022/03/03 03:44:14;;;;;;;22.23;10.57;;;;;;;;;;5048579;28;21123;-62
2022/03/03 03:46:41;;;;;;;20.40;9.47;;;;;;;;;;5047910;28;20542;-62
2022/03/03 03:49:08;;;;;;;23.63;9.40;;;;;;;;;;5048249;28;20453;-62
2022/03/03 03:51:34;;;;;;;20.10;9.63;;;;;;;;;;5048158;28;20421;-62
2022/03/03 03:54:01;;;;;;;21.60;9.93;;;;;;;;;;5047414;28;20445;-62
2022/03/03 03:56:28;;;;;;;23.00;9.87;;;;;;;;;;5052378;28;20487;-62
2022/03/03 03:58:54;;;;;;;24.40;10.57;;;;;;;;;;5052195;28;20959;-62
2022/03/03 04:01:21;;;;;;;22.97;9.87;;;;;;;;;;5051591;28;20544;-62
2022/03/03 04:03:48;;;;;;;24.67;9.67;;;;;;;;;;5051759;28;20429;-62
2022/03/03 04:06:14;;;;;;;23.67;10.07;;;;;;;;;;5051815;28;20465;-62
2022/03/03 04:08:41;;;;;;;21.77;8.70;;;;;;;;;;5034065;28;20426;-62
2022/03/03 04:11:07;;;;;;;25.17;11.53;;;;;;;;;;5032004;28;21051;-63
2022/03/03 04:13:34;;;;;;;24.63;9.87;;;;;;;;;;5032041;28;20453;-62
2022/03/03 04:16:00;;;;;;;22.40;8.97;;;;;;;;;;5031562;28;20464;-62
2022/03/03 04:18:27;;;;;;;24.07;9.30;;;;;;;;;;5030049;28;20544;-62
2022/03/03 04:20:54;;;;;;;20.40;8.47;;;;;;;;;;5031707;28;20518;-62
2022/03/03 04:23:20;;;;;;;19.13;8.37;;;;;;;;;;5031672;28;20472;-62
2022/03/03 04:25:47;;;;;;;21.10;9.47;;;;;;;;;;5031675;28;20480;-62
2022/03/03 04:28:14;;;;;;;21.57;8.77;;;;;;;;;;5031893;28;20838;-62
2022/03/03 04:30:41;;;;;;;23.70;10.57;;;;;;;;;;5031091;28;20488;-62
2022/03/03 04:33:07;;;;;;;25.17;10.40;;;;;;;;;;5031563;28;20422;-62
2022/03/03 04:35:34;;;;;;;20.93;9.03;;;;;;;;;;5031461;28;20493;-62
2022/03/03 04:38:00;;;;;;;23.30;9.40;;;;;;;;;;5031599;28;20446;-62
2022/03/03 04:40:27;;;;;;;21.67;8.97;;;;;;;;;;5031592;28;20446;-62
2022/03/03 04:42:53;;;;;;;21.00;9.23;;;;;;;;;;5031437;28;20430;-62
2022/03/03 04:45:20;;;;;;;21.43;8.63;;;;;;;;;;5031108;28;20434;-62
2022/03/03 04:47:46;;;;;;;19.67;8.50;;;;;;;;;;5031271;28;20534;-62
2022/03/03 04:50:13;;;;;;;22.93;9.50;;;;;;;;;;5031621;28;20885;-62
2022/03/03 04:52:40;;;;;;;19.50;9.13;;;;;;;;;;5030858;28;20446;-62
2022/03/03 04:55:06;;;;;;;22.43;8.87;;;;;;;;;;5031113;28;20422;-62
2022/03/03 04:57:33;;;;;;;20.80;9.23;;;;;;;;;;5031243;28;20434;-62
2022/03/03 05:00:00;;;;;;;19.77;9.27;;;;;;;;;;5030945;28;20429;-62
2022/03/03 05:02:27;;;;;;;22.13;8.83;;;;;;;;;;5031245;28;20436;-62
2022/03/03 05:04:54;;;;;;;21.60;9.50;;;;;;;;;;5037689;28;20544;-62
2022/03/03 05:07:21;;;;;;;22.20;8.90;;;;;;;;;;5043082;28;20438;-62
2022/03/03 05:09:48;;;;;;;25.80;10.07;;;;;;;;;;5031013;28;20496;-62
2022/03/03 05:12:14;;;;;;;23.27;10.23;;;;;;;;;;5030897;28;20442;-62
2022/03/03 05:14:41;;;;;;;23.60;9.77;;;;;;;;;;5029605;28;20489;-64
2022/03/03 05:17:08;;;;;;;24.93;10.27;;;;;;;;;;5037010;28;21196;-63
2022/03/03 05:19:34;;;;;;;23.20;9.73;;;;;;;;;;5044817;28;20421;-62
2022/03/03 05:22:01;;;;;;;22.77;9.10;;;;;;;;;;5043515;28;20556;-63
2022/03/03 05:24:27;;;;;;;22.03;9.37;;;;;;;;;;5044761;28;20459;-62
2022/03/03 05:26:54;;;;;;;20.17;9.80;;;;;;;;;;5043366;28;20480;-63
2022/03/03 05:29:21;;;;;;;21.53;9.93;;;;;;;;;;5044033;28;20432;-62
2022/03/03 05:31:48;;;;;;;19.70;10.00;;;;;;;;;;5044205;28;20440;-64
2022/03/03 05:34:15;;;;;;;22.87;9.73;;;;;;;;;;5043928;28;20430;-63
2022/03/03 05:36:42;;;;;;;18.50;8.90;;;;;;;;;;5043953;28;20530;-63
2022/03/03 05:39:08;;;;;;;24.13;9.63;;;;;;;;;;5042126;28;21006;-63
2022/03/03 05:41:35;;;;;;;19.27;9.60;;;;;;;;;;5043976;28;20433;-65
2022/03/03 05:44:02;;;;;;;22.20;9.10;;;;;;;;;;5044678;28;20422;-64
2022/03/03 05:46:30;;;;;;;24.57;10.53;;;;;;;;;;5042927;28;20429;-64
2022/03/03 05:48:57;;;;;;;21.63;9.87;;;;;;;;;;5044149;28;20433;-65
2022/03/03 05:51:24;;;;;;;23.37;10.60;;;;;;;;;;5038879;28;20875;-64
2022/03/03 05:53:50;;;;;;;25.00;10.33;;;;;;;;;;5044807;28;20449;-63
2022/03/03 05:56:17;;;;;;;24.53;10.33;;;;;;;;;;5044921;28;20460;-64
2022/03/03 05:58:44;;;;;;;24.90;10.53;;;;;;;;;;5042970;28;20994;-64
2022/03/03 06:01:11;;;;;;;27.07;9.93;;;;;;;;;;5043422;28;20429;-65
2022/03/03 06:03:38;;;;;;;31.23;11.30;;;;;;;;;;5043066;28;20441;-64
2022/03/03 06:06:17;;;;;;;23.60;9.83;;;;;;;;;;5044424;28;20429;-63
2022/03/03 06:08:57;;;;;;;24.33;10.73;;;;;;;;;;5042797;28;21008;-64
2022/03/03 06:11:27;;;;;;;24.77;11.00;;;;;;;;;;5042964;28;20469;-64
2022/03/03 06:13:57;;;;;;;21.47;9.10;;;;;;;;;;5043011;28;20429;-64
2022/03/03 06:16:24;;;;;;;20.60;9.87;;;;;;;;;;5043956;28;20441;-64
2022/03/03 06:18:51;;;;;;;25.10;9.93;;;;;;;;;;5043975;28;20479;-64
2022/03/03 06:21:18;;;;;;;26.97;10.57;;;;;;;;;;5044171;28;20928;-65
2022/03/03 06:23:45;;;;;;;24.07;11.37;;;;;;;;;;5041293;28;20425;-64
2022/03/03 06:26:13;;;;;;;25.90;10.80;;;;;;;;;;5043065;28;21308;-64
2022/03/03 06:28:40;;;;;;;22.77;10.63;;;;;;;;;;5043601;28;20426;-64
2022/03/03 06:31:06;;;;;;;23.70;9.87;;;;;;;;;;5043351;28;20503;-64
2022/03/03 06:33:33;;;;;;;29.37;11.37;;;;;;;;;;5040470;28;20433;-65
2022/03/03 06:36:00;;;;;;;24.60;10.27;;;;;;;;;;5043830;28;20441;-64
2022/03/03 06:38:27;;;;;;;21.03;9.37;;;;;;;;;;5042611;28;20563;-64
2022/03/03 06:40:55;;;;;;;23.57;10.00;;;;;;;;;;5042502;28;20444;-62
2022/03/03 06:43:21;;;;;;;21.83;9.47;;;;;;;;;;5043341;28;20444;-64
2022/03/03 06:45:48;;;;;;;22.57;10.03;;;;;;;;;;5043856;28;20445;-64
2022/03/03 06:48:15;;;;;;;21.67;10.37;;;;;;;;;;5041812;28;20433;-63
2022/03/03 06:50:42;;;;;;;21.90;10.07;;;;;;;;;;5041745;28;21279;-63
2022/03/03 06:53:09;;;;;;;24.63;10.17;;;;;;;;;;5043881;28;20434;-64
2022/03/03 06:55:36;;;;;;;22.90;9.93;;;;;;;;;;5043571;28;21180;-63
2022/03/03 06:58:02;;;;;;;22.93;10.90;;;;;;;;;;5041875;28;20437;-64
2022/03/03 07:00:32;;;;;;;20.20;9.33;;;;;;;;;;5042648;28;20495;-66
2022/03/03 07:02:59;;;;;;;21.73;10.53;;;;;;;;;;5042254;28;21252;-64
2022/03/03 07:05:28;;;;;;;20.67;9.47;;;;;;;;;;5043346;28;20464;-64
2022/03/03 07:07:54;;;;;;;25.80;10.93;;;;;;;;;;5042676;28;20509;-64
2022/03/03 07:10:25;;;;;;;19.27;8.67;;;;;;;;;;5041844;28;20492;-65
2022/03/03 07:12:52;;;;;;;21.70;10.40;;;;;;;;;;5042707;28;20490;-64
2022/03/03 07:15:19;;;;;;;20.37;9.43;;;;;;;;;;5041531;28;20436;-66
2022/03/03 07:18:18;;;;;;;21.80;9.77;;;;;;;;;;5042983;28;20983;-65
2022/03/03 07:20:50;;;;;;;26.23;10.23;;;;;;;;;;5049920;28;20544;-66
2022/03/03 07:23:19;;;;;;;24.37;10.53;;;;;;;;;;5040509;28;20453;-66
2022/03/03 07:25:49;;;;;;;22.03;10.27;;;;;;;;;;5041957;28;20781;-66
2022/03/03 07:28:16;;;;;;;22.10;10.40;;;;;;;;;;5039218;28;20521;-66
2022/03/03 07:30:44;;;;;;;22.30;10.37;;;;;;;;;;5039181;28;20461;-66
2022/03/03 07:33:11;;;;;;;22.83;10.43;;;;;;;;;;5024557;28;20468;-65
2022/03/03 07:35:42;;;;;;;24.20;10.10;;;;;;;;;;5040952;28;20964;-64
2022/03/03 07:38:12;;;;;;;22.77;9.07;;;;;;;;;;5040386;28;20439;-64
2022/03/03 07:40:41;;;;;;;21.43;9.50;;;;;;;;;;5041864;28;20441;-64
2022/03/03 07:43:11;;;;;;;22.23;9.93;;;;;;;;;;5042851;28;20440;-64
2022/03/03 07:45:38;;;;;;;17.50;8.03;;;;;;;;;;5042786;28;20534;-65
2022/03/03 07:48:05;;;;;;;22.30;9.80;;;;;;;;;;5041687;28;20461;-66
2022/03/03 07:50:32;;;;;;;21.80;9.33;;;;;;;;;;5042890;28;20915;-68
2022/03/03 07:52:59;;;;;;;19.87;9.57;;;;;;;;;;5042879;28;20487;-67
2022/03/03 07:55:26;;;;;;;21.33;9.73;;;;;;;;;;5042618;28;20534;-67
2022/03/03 07:57:57;;;;;;;24.00;11.03;;;;;;;;;;5041031;28;20451;-66
2022/03/03 08:00:23;;;;;;;21.40;10.70;;;;;;;;;;5041820;28;20469;-66
2022/03/03 08:02:50;;;;;;;25.00;11.47;;;;;;;;;;5041053;28;20460;-65
2022/03/03 08:05:17;;;;;;;22.83;10.97;;;;;;;;;;5040859;28;20476;-64
2022/03/03 08:07:44;;;;;;;22.33;11.57;;;;;;;;;;5040240;28;20950;-65
2022/03/03 08:10:11;;;;;;;22.90;10.97;;;;;;;;;;5024177;28;20821;-66
2022/03/03 08:12:39;;;;;;;28.60;13.93;;;;;;;;;;5040884;28;20441;-67
2022/03/03 08:15:06;;;;;;;21.07;10.27;;;;;;;;;;5041390;28;20476;-68
2022/03/03 08:17:34;;;;;;;20.57;9.53;;;;;;;;;;5042384;28;20963;-67
2022/03/03 08:20:02;;;;;;;22.87;9.77;;;;;;;;;;5040292;28;20439;-67
2022/03/03 08:22:29;;;;;;;27.80;12.03;;;;;;;;;;5039986;28;20463;-66
2022/03/03 08:24:59;;;;;;;32.47;13.63;;;;;;;;;;5041360;28;20442;-66
2022/03/03 08:27:26;;;;;;;25.37;11.37;;;;;;;;;;5039410;28;20502;-66
2022/03/03 08:29:58;;;;;;;22.67;13.30;;;;;;;;;;5040871;28;20512;-66
2022/03/03 08:32:26;;;;;;;25.10;12.97;;;;;;;;;;5042207;28;20499;-66
2022/03/03 08:34:57;;;;;;;26.37;11.77;;;;;;;;;;5041027;28;20520;-67
2022/03/03 08:37:29;;;;;;;27.60;13.80;;;;;;;;;;5040087;28;21036;-66
2022/03/03 08:39:57;;;;;;;25.87;12.77;;;;;;;;;;5039908;28;20440;-67
2022/03/03 08:42:27;;;;;;;24.70;11.77;;;;;;;;;;5043068;28;20486;-67
2022/03/03 08:44:54;;;;;;;21.50;10.37;;;;;;;;;;5043150;28;20445;-68
2022/03/03 08:47:22;;;;;;;23.40;9.67;;;;;;;;;;5044011;28;20432;-69
2022/03/03 08:49:49;;;;;;;27.90;11.50;;;;;;;;;;5043381;28;20521;-67
2022/03/03 08:52:16;;;;;;;22.80;10.97;;;;;;;;;;5026851;28;21014;-68
2022/03/03 08:54:43;;;;;;;25.37;10.57;;;;;;;;;;5043388;28;21210;-67
2022/03/03 08:57:10;;;;;;;29.40;12.47;;;;;;;;;;5044301;28;20453;-66
2022/03/03 08:59:38;;;;;;;26.20;11.80;;;;;;;;;;5043527;28;20433;-67
2022/03/03 09:02:04;;;;;;;26.30;11.60;;;;;;;;;;5043021;28;20437;-66
2022/03/03 09:04:31;;;;;;;27.23;11.53;;;;;;;;;;5045225;28;20471;-66
2022/03/03 09:06:58;;;;;;;27.27;11.87;;;;;;;;;;5043837;28;20433;-66
2022/03/03 09:09:25;;;;;;;26.93;12.80;;;;;;;;;;5043516;28;20531;-66
2022/03/03 09:11:51;;;;;;;26.07;11.57;;;;;;;;;;5044944;28;20466;-65
2022/03/03 09:14:18;;;;;;;30.93;12.23;;;;;;;;;;5044046;28;20453;-66
2022/03/03 09:16:45;;;;;;;31.60;14.13;;;;;;;;;;5043978;28;21152;-68
2022/03/03 09:19:12;;;;;;;27.90;13.33;;;;;;;;;;5042380;28;21009;-65
2022/03/03 09:21:40;;;;;;;28.30;12.13;;;;;;;;;;5043511;28;20448;-65
2022/03/03 09:24:08;;;;;;;24.23;11.33;;;;;;;;;;5043710;28;20443;-66
2022/03/03 09:26:35;;;;;;;27.10;11.77;;;;;;;;;;5044885;28;20933;-64
2022/03/03 09:29:04;;;;;;;29.43;12.20;;;;;;;;;;5044164;28;20991;-67
2022/03/03 09:31:31;;;;;;;29.27;11.70;;;;;;;;;;5043140;28;20910;-69
2022/03/03 09:33:59;;;;;;;24.80;11.10;;;;;;;;;;5043304;28;20442;-67
2022/03/03 09:36:25;;;;;;;26.80;11.60;;;;;;;;;;5044413;28;20429;-65
2022/03/03 09:38:52;;;;;;;22.93;11.40;;;;;;;;;;5043718;28;20435;-65
2022/03/03 09:41:19;;;;;;;27.60;11.83;;;;;;;;;;5044981;28;21303;-66
2022/03/03 09:43:46;;;;;;;24.77;11.30;;;;;;;;;;5042792;28;20451;-66
2022/03/03 09:46:13;;;;;;;28.00;12.00;;;;;;;;;;5044362;28;21031;-66
2022/03/03 09:48:40;;;;;;;23.13;10.60;;;;;;;;;;5044033;28;20494;-66
2022/03/03 09:51:07;;;;;;;24.67;11.07;;;;;;;;;;5042458;28;20468;-64
2022/03/03 09:53:34;;;;;;;24.07;10.23;;;;;;;;;;5043791;28;20445;-64
2022/03/03 09:56:01;;;;;;;19.30;9.87;;;;;;;;;;5027165;28;20453;-64
2022/03/03 09:58:27;;;;;;;24.07;10.53;;;;;;;;;;5044633;28;20431;-64
2022/03/03 10:00:55;;;;;;;21.50;9.97;;;;;;;;;;5043214;28;20424;-65
2022/03/03 10:03:22;;;;;;;21.53;10.50;;;;;;;;;;5042810;28;20441;-64
2022/03/03 10:05:50;;;;;;;21.77;9.70;;;;;;;;;;5043909;28;20465;-64
2022/03/03 10:08:21;;;;;;;21.90;10.37;;;;;;;;;;5044299;28;20456;-64
2022/03/03 10:10:48;;;;;;;20.53;10.20;;;;;;;;;;5041778;28;20461;-64
2022/03/03 10:13:17;;;;;;;23.13;11.47;;;;;;;;;;5042469;28;20518;-64
2022/03/03 10:15:49;;;;;;;20.00;10.27;;;;;;;;;;5043370;28;20437;-65
2022/03/03 10:18:16;;;;;;;18.53;9.10;;;;;;;;;;5043272;28;20536;-63
2022/03/03 10:20:54;;;;;;;20.13;8.87;;;;;;;;;;5042476;28;20433;-67
2022/03/03 10:23:25;;;;;;;15.73;8.50;;;;;;;;;;5042720;28;20448;-63
2022/03/03 10:25:51;;;;;;;18.13;9.00;;;;;;;;;;5044212;28;20440;-67
2022/03/03 10:28:19;;;;;;;14.90;8.57;;;;;;;;;;5044074;28;20433;-69
2022/03/03 10:30:46;;;;;;;16.67;8.37;;;;;;;;;;5041477;28;20274;-64
2022/03/03 10:33:14;;;;;;;17.17;8.17;;;;;;;;;;5043755;28;20524;-65
2022/03/03 10:35:41;;;;;;;13.50;7.87;;;;;;;;;;5025406;28;20210;-69
2022/03/03 10:38:10;;;;;;;18.63;8.50;;;;;;;;;;5042494;28;20426;-67
2022/03/03 10:40:37;;;;;;;15.87;8.40;;;;;;;;;;5041728;28;20195;-68
2022/03/03 10:43:05;;;;;;;17.67;9.00;;;;;;;;;;5041439;28;20246;-67
2022/03/03 10:45:32;;;;;;;18.20;9.63;;;;;;;;;;5043247;28;20241;-68
2022/03/03 10:48:03;;;;;;;17.57;9.67;;;;;;;;;;5041871;28;20987;-67
2022/03/03 10:50:43;;;;;;;18.20;8.50;;;;;;;;;;5043039;28;20194;-68
2022/03/03 10:53:10;;;;;;;16.17;8.57;;;;;;;;;;5042207;28;20191;-68
2022/03/03 10:55:37;;;;;;;19.13;8.27;;;;;;;;;;5040026;28;20193;-70
2022/03/03 10:58:06;;;;;;;16.80;8.90;;;;;;;;;;5041923;28;20218;-70
2022/03/03 11:00:35;;;;;;;17.13;8.57;;;;;;;;;;5041759;28;20189;-68
2022/03/03 11:03:04;;;;;;;15.23;8.47;;;;;;;;;;5042864;28;20195;-69
2022/03/03 11:05:31;;;;;;;19.23;8.80;;;;;;;;;;5042710;28;20237;-69
2022/03/03 11:07:58;;;;;;;16.90;8.60;;;;;;;;;;5044110;28;20198;-68
2022/03/03 11:10:27;;;;;;;14.77;8.93;;;;;;;;;;5042033;28;20265;-68
2022/03/03 11:12:54;;;;;;;14.23;7.97;;;;;;;;;;5008019;28;20241;-68
2022/03/03 11:15:22;;;;;;;13.40;7.47;;;;;;;;;;5041776;28;20259;-67
2022/03/03 11:17:49;;;;;;;14.93;8.37;;;;;;;;;;5041955;28;20257;-68
2022/03/03 11:20:17;;;;;;;15.53;8.73;;;;;;;;;;5043158;28;20190;-69
2022/03/03 11:22:44;;;;;;;16.70;8.20;;;;;;;;;;5040907;28;20278;-68
2022/03/03 11:25:17;;;;;;;14.60;7.53;;;;;;;;;;5041613;28;20202;-68
2022/03/03 11:27:45;;;;;;;12.03;6.67;;;;;;;;;;5041419;28;20222;-68
2022/03/03 11:30:11;;;;;;;12.67;6.80;;;;;;;;;;5039655;28;20274;-67
2022/03/03 11:32:40;;;;;;;11.90;6.20;;;;;;;;;;5042321;28;20221;-68
2022/03/03 11:35:08;;;;;;;16.03;6.43;;;;;;;;;;5009144;28;20290;-67
2022/03/03 11:37:39;;;;;;;12.20;6.23;;;;;;;;;;5022839;28;20873;-67
2022/03/03 11:40:06;;;;;;;9.90;5.27;;;;;;;;;;5041111;28;20240;-66
2022/03/03 11:42:39;;;;;;;12.37;6.23;;;;;;;;;;5040237;28;20217;-68
2022/03/03 11:45:09;;;;;;;10.57;5.63;;;;;;;;;;5041538;28;20202;-66
2022/03/03 11:47:36;;;;;;;21.23;13.67;;;;;;;;;;5042007;28;20245;-66
2022/03/03 11:50:12;;;;;;;10.50;6.17;;;;;;;;;;5023912;28;20201;-67
2022/03/03 11:52:40;;;;;;;8.13;4.10;;;;;;;;;;5040694;28;20787;-67
2022/03/03 11:55:23;;;;;;;8.37;4.03;;;;;;;;;;5041037;28;20193;-68
2022/03/03 11:57:54;;;;;;;12.23;4.40;;;;;;;;;;5041328;28;20253;-67
2022/03/03 12:00:21;;;;;;;10.17;4.73;;;;;;;;;;5039019;28;20186;-66
2022/03/03 12:03:14;;;;;;;8.20;4.53;;;;;;;;;;5040764;28;20191;-67
2022/03/03 12:05:41;;;;;;;6.43;3.50;;;;;;;;;;5042317;28;20817;-67
2022/03/03 12:08:13;;;;;;;6.17;3.90;;;;;;;;;;5042261;28;20195;-67
2022/03/03 12:10:59;;;;;;;6.63;3.50;;;;;;;;;;5041235;28;20919;-67
2022/03/03 12:13:26;;;;;;;6.77;3.30;;;;;;;;;;5041542;28;20212;-66
2022/03/03 12:16:12;;;;;;;7.27;3.60;;;;;;;;;;5043155;28;20267;-66
2022/03/03 12:18:39;;;;;;;7.47;3.47;;;;;;;;;;5045590;28;20191;-67
2022/03/03 12:21:32;;;;;;;8.60;3.87;;;;;;;;;;5044407;28;20202;-67
2022/03/03 12:24:14;;;;;;;5.83;3.90;;;;;;;;;;5058330;28;20211;-68
2022/03/03 12:26:57;;;;;;;8.00;3.50;;;;;;;;;;5044613;28;20777;-67
2022/03/03 12:29:39;;;;;;;8.13;3.30;;;;;;;;;;5043114;28;20205;-68
2022/03/03 12:32:29;;;;;;;3.80;2.47;;;;;;;;;;5045485;28;20226;-68
2022/03/03 12:34:57;;;;;;;5.10;2.33;;;;;;;;;;5043356;28;20195;-68
2022/03/03 12:37:24;;;;;;;5.90;2.60;;;;;;;;;;5044186;28;20190;-65
2022/03/03 12:39:51;;;;;;;6.83;3.10;;;;;;;;;;5045489;28;20532;-67
2022/03/03 12:42:18;;;;;;;5.33;2.40;;;;;;;;;;5045970;28;20207;-67
2022/03/03 12:44:49;;;;;;;4.73;2.60;;;;;;;;;;5046172;28;20192;-63
2022/03/03 12:47:16;;;;;;;4.47;2.00;;;;;;;;;;5030861;28;20188;-66
2022/03/03 12:49:44;;;;;;;5.30;2.40;;;;;;;;;;5044926;28;20269;-63
2022/03/03 12:52:11;;;;;;;6.57;2.20;;;;;;;;;;5049742;28;20250;-64
2022/03/03 12:54:37;;;;;;;5.77;2.50;;;;;;;;;;5051165;28;20179;-64
2022/03/03 12:57:04;;;;;;;6.40;2.63;;;;;;;;;;5051046;28;20221;-64
2022/03/03 12:59:32;;;;;;;3.53;1.90;;;;;;;;;;5050850;28;20269;-65
2022/03/03 13:01:59;;;;;;;3.47;1.80;;;;;;;;;;5051346;28;20269;-65
2022/03/03 13:04:32;;;;;;;3.87;1.50;;;;;;;;;;5050655;28;20249;-64
2022/03/03 13:07:06;;;;;;;5.20;2.10;;;;;;;;;;5050572;28;20191;-65
2022/03/03 13:09:33;;;;;;;9.73;3.77;;;;;;;;;;5049370;28;20650;-64
2022/03/03 13:12:00;;;;;;;4.50;1.90;;;;;;;;;;5050664;28;20741;-64
2022/03/03 13:14:27;;;;;;;4.33;2.00;;;;;;;;;;5050498;28;20218;-64
2022/03/03 13:16:54;;;;;;;2.30;1.27;;;;;;;;;;5049512;28;20237;-64
2022/03/03 13:19:21;;;;;;;7.57;1.30;;;;;;;;;;5049262;28;20193;-64
2022/03/03 13:21:47;;;;;;;6.03;2.10;;;;;;;;;;5049511;28;20187;-64
2022/03/03 13:24:14;;;;;;;3.67;1.60;;;;;;;;;;5046696;28;20278;-66
2022/03/03 13:26:49;;;;;;;3.20;1.40;;;;;;;;;;5043172;28;20195;-66
2022/03/03 13:29:16;;;;;;;4.93;1.63;;;;;;;;;;5044490;28;20669;-67
2022/03/03 13:31:43;;;;;;;3.57;1.50;;;;;;;;;;5044446;28;20246;-65
2022/03/03 13:34:21;;;;;;;5.47;1.73;;;;;;;;;;5044456;28;20187;-64
2022/03/03 13:36:48;;;;;;;4.70;1.60;;;;;;;;;;5043131;28;20187;-64
2022/03/03 13:39:24;;;;;;;4.23;1.93;;;;;;;;;;5043557;28;20195;-67
2022/03/03 13:42:10;;;;;;;2.43;1.27;;;;;;;;;;5044562;28;20281;-66
2022/03/03 13:44:39;;;;;;;4.90;2.00;;;;;;;;;;5044578;28;20233;-66
2022/03/03 13:47:10;;;;;;;3.57;1.70;;;;;;;;;;5025837;28;20199;-64
2022/03/03 13:49:37;;;;;;;5.27;1.60;;;;;;;;;;5043566;28;20191;-65
2022/03/03 13:52:07;;;;;;;4.47;1.50;;;;;;;;;;5043267;28;20268;-66
2022/03/03 13:54:41;;;;;;;5.27;1.70;;;;;;;;;;5043213;28;20206;-65
2022/03/03 13:57:07;;;;;;;2.93;1.10;;;;;;;;;;5043626;28;20282;-65
2022/03/03 13:59:53;;;;;;;3.47;1.50;;;;;;;;;;5044604;28;20202;-64
2022/03/03 14:02:21;;;;;;;2.90;1.30;;;;;;;;;;5047950;28;20563;-65
2022/03/03 14:04:59;;;;;;;2.57;1.37;;;;;;;;;;5031772;28;20237;-64
2022/03/03 14:07:27;;;;;;;4.57;1.67;;;;;;;;;;5047163;28;20207;-64
2022/03/03 14:09:59;;;;;;;7.20;1.60;;;;;;;;;;5015718;28;20191;-64
2022/03/03 14:12:26;;;;;;;5.37;1.80;;;;;;;;;;5048193;28;20207;-64
2022/03/03 14:14:53;;;;;;;5.50;1.50;;;;;;;;;;5049059;28;20202;-65
2022/03/03 14:17:20;;;;;;;17.43;8.27;;;;;;;;;;5046872;28;20194;-64
2022/03/03 14:19:47;;;;;;;3.60;1.80;;;;;;;;;;5042751;28;20195;-64
2022/03/03 14:22:17;;;;;;;4.87;2.37;;;;;;;;;;5043625;28;20191;-66
2022/03/03 14:24:45;;;;;;;8.67;4.70;;;;;;;;;;5033643;28;20203;-63
2022/03/03 14:27:11;;;;;;;9.30;2.87;;;;;;;;;;5029722;28;20183;-64
2022/03/03 14:29:38;;;;;;;9.97;4.60;;;;;;;;;;5029013;28;20184;-63
2022/03/03 14:32:04;;;;;;;6.30;2.90;;;;;;;;;;5029327;28;20210;-63
2022/03/03 14:34:31;;;;;;;6.07;2.30;;;;;;;;;;5027697;28;20678;-64
2022/03/03 14:36:58;;;;;;;4.17;1.67;;;;;;;;;;5029184;28;20229;-64
2022/03/03 14:39:25;;;;;;;3.13;1.47;;;;;;;;;;5028959;28;20206;-64
2022/03/03 14:41:52;;;;;;;9.50;2.33;;;;;;;;;;5029244;28;20179;-64
2022/03/03 14:44:18;;;;;;;4.20;2.07;;;;;;;;;;5029320;28;20230;-64
2022/03/03 14:46:45;;;;;;;9.53;1.90;;;;;;;;;;5029035;28;20198;-64
2022/03/03 14:49:14;;;;;;;5.57;2.00;;;;;;;;;;5028975;28;20266;-64
2022/03/03 14:51:41;;;;;;;3.37;1.40;;;;;;;;;;5028766;28;20246;-64
2022/03/03 14:54:09;;;;;;;2.23;1.10;;;;;;;;;;5027720;28;20226;-64
2022/03/03 14:56:36;;;;;;;5.40;1.40;;;;;;;;;;5028703;28;20202;-64
2022/03/03 14:59:02;;;;;;;4.87;1.50;;;;;;;;;;5029014;28;20211;-64
2022/03/03 15:01:29;;;;;;;6.03;3.20;;;;;;;;;;5028585;28;20268;-64
2022/03/03 15:04:02;;;;;;;5.47;2.80;;;;;;;;;;5027833;28;20284;-64
2022/03/03 15:06:30;;;;;;;2.10;1.20;;;;;;;;;;5028065;28;20198;-63
2022/03/03 15:08:59;;;;;;;1.80;1.07;;;;;;;;;;5048464;28;20289;-63
2022/03/03 15:11:27;;;;;;;2.83;0.90;;;;;;;;;;5048680;28;20194;-64
2022/03/03 15:13:54;;;;;;;4.87;1.60;;;;;;;;;;5048613;28;20260;-63